Record high temperature 37.4°C Record low temperature -14.6°C Record high gust 68.5 km/h Record high average 47.2 km/h Record daily rain 55.3 mm Record low windchill -17.5°C Record high barometer 1045.0 hPa Record low barometer 970.0 hPa
Daily high pressure 1019.0 hPa Daily low pressure 1018.0 hPa Daily low windchill 12.8°C Daily high heat index 29.1°C Daily high gust speed 11.8 kmh W Daily high average speed 8.7 kmh NNE

This page is updated from recent data collected by a WMR200 weather station Use the Reload or Refresh facility on your browser to retrieve the latest data.

Status report of weather station: Bienvenue sur la Station Météo de Godarville



Weather report/warning/Metars

Alexandroupoli Airport , Greece (LGAL) 40-51N 025-55E 3M
Jul 19, 2018 - 08:50 AM EDT / 2018.07.19 1250 UTC
Wind: from the SW (220 degrees) at 8 MPH (7 KT):0
Visibility: greater than 7 mile(s):0
Sky conditions: partly cloudy
Temperature: 82 F (28 C)
Dew Point: 55 F (13 C)
Relative Humidity: 39%
Pressure (altimeter): 29.71 in. Hg (1006 hPa)
ob: LGAL 191250Z 22007KT 9999 SCT025 28/13 Q1006
cycle: 13

Charleroi / Gosselies, Belgium (EBCI) 50-28N 004-27E 192M
Jul 19, 2018 - 08:50 AM EDT / 2018.07.19 1250 UTC
Wind: from the W (270 degrees) at 6 MPH (5 KT) (direction variable):0
Visibility: greater than 7 mile(s):0
Temperature: 78 F (26 C)
Dew Point: 48 F (9 C)
Relative Humidity: 34%
Pressure (altimeter): 30.06 in. Hg (1018 hPa)
ob: EBCI 191250Z 27005KT 230V310 CAVOK 26/09 Q1018 NOSIG
cycle: 13

Bruxelles National, Belgium (EBBR) 50-54N 004-32E 58M
Jul 19, 2018 - 08:50 AM EDT / 2018.07.19 1250 UTC
Wind: Variable at 1 MPH (1 KT):0
Visibility: greater than 7 mile(s):0
Temperature: 78 F (26 C)
Dew Point: 50 F (10 C)
Relative Humidity: 36%
Pressure (altimeter): 30.06 in. Hg (1018 hPa)
ob: EBBR 191250Z VRB01KT CAVOK 26/10 Q1018 NOSIG
cycle: 13

Koksijde, Belgium (EBFN) 51-05N 002-39E 9M
Jul 19, 2018 - 08:55 AM EDT / 2018.07.19 1255 UTC
Wind: from the NNE (020 degrees) at 12 MPH (10 KT):0
Visibility: greater than 7 mile(s):0
Sky conditions: mostly cloudy
Temperature: 75 F (24 C)
Dew Point: 48 F (9 C)
Relative Humidity: 38%
Pressure (altimeter): 30.09 in. Hg (1019 hPa)
ob: EBFN 191255Z 02010KT 9999 FEW040 BKN220 24/09 Q1019 BLU BLU
cycle: 13

Poznan, Poland (EPPO) 52-25N 016-50E 92M
Jul 19, 2018 - 09:00 AM EDT / 2018.07.19 1300 UTC
Wind: from the N (010 degrees) at 7 MPH (6 KT):0
Visibility: greater than 7 mile(s):0
Sky conditions: mostly cloudy
Weather: light rain showers; Towering cumulus clouds observed
Temperature: 68 F (20 C)
Dew Point: 66 F (19 C)
Relative Humidity: 93%
Pressure (altimeter): 29.91 in. Hg (1013 hPa)
ob: EPPO 191300Z 01006KT 9999 -SHRA BKN013TCU 20/19 Q1013 
cycle: 13



Coucher du Soleil:
21:46:00

Lever de Lune:
12:33:10 18/07/18

Coucher de Lune:
00:46:17 19/07/18

Premier Quartier 19 juillet 2018
Pleine Lune 27 juillet 2018
Dernier Quartier 4 août 2018
Nouvelle Lune 11 août 2018
Âge de lune : 6 jours,11 heures,12 minutes,40%
Les heures du jour possible étaient aujourd’hui 15:55